createdAt,value
2023-05-02T00:02:25.215Z,100951.00
2023-05-02T00:04:52.553Z,100948.00
2023-05-02T00:07:19.131Z,100934.00
2023-05-02T00:09:46.043Z,100948.00
2023-05-02T00:12:12.539Z,100942.00
2023-05-02T00:14:39.122Z,100941.00
2023-05-02T00:17:05.745Z,100939.00
2023-05-02T00:19:40.179Z,100944.00
2023-05-02T00:22:08.976Z,100946.00
2023-05-02T00:24:35.735Z,100937.00
2023-05-02T00:27:02.377Z,100939.00
2023-05-02T00:29:29.267Z,100935.00
2023-05-02T00:31:59.416Z,100935.00
2023-05-02T00:34:31.549Z,100931.00
2023-05-02T00:36:58.356Z,100933.00
2023-05-02T00:39:25.337Z,100934.00
2023-05-02T00:41:59.089Z,100931.00
2023-05-02T00:44:25.917Z,100940.00
2023-05-02T00:46:53.252Z,100933.00
2023-05-02T00:49:20.537Z,100939.00
2023-05-02T00:51:47.024Z,100932.00
2023-05-02T00:54:14.229Z,100936.00
2023-05-02T00:56:40.781Z,100936.00
2023-05-02T00:59:10.171Z,100935.00
2023-05-02T01:01:55.448Z,100929.00
2023-05-02T01:04:42.234Z,100931.00
2023-05-02T01:07:46.874Z,100940.00
2023-05-02T01:10:24.955Z,100942.00
2023-05-02T01:13:13.936Z,100939.00
2023-05-02T01:15:43.454Z,100941.00
2023-05-02T01:18:12.391Z,100945.00
2023-05-02T01:20:42.372Z,100949.00
2023-05-02T01:23:20.675Z,100947.00
2023-05-02T01:26:06.660Z,100950.00
2023-05-02T01:28:59.283Z,100949.00
2023-05-02T01:31:28.132Z,100953.00
2023-05-02T01:34:05.523Z,100956.00
2023-05-02T01:36:34.340Z,100963.00
2023-05-02T01:39:07.079Z,100962.00
2023-05-02T01:41:34.842Z,100963.00
2023-05-02T01:44:03.295Z,100960.00
2023-05-02T01:46:40.451Z,100967.00
2023-05-02T01:49:09.597Z,100967.00
2023-05-02T01:51:40.848Z,100964.00
2023-05-02T01:54:08.993Z,100969.00
2023-05-02T01:56:37.928Z,100971.00
2023-05-02T01:59:13.838Z,100982.00
2023-05-02T02:01:41.359Z,100989.00
2023-05-02T02:04:12.239Z,100982.00
2023-05-02T02:06:41.053Z,100980.00
2023-05-02T02:09:08.769Z,100985.00
2023-05-02T02:11:57.576Z,100983.00
2023-05-02T02:14:33.725Z,100992.00
2023-05-02T02:17:03.887Z,100997.00
2023-05-02T02:19:31.368Z,101000.00
2023-05-02T02:21:59.049Z,101007.00
2023-05-02T02:24:27.126Z,100998.00
2023-05-02T02:26:53.676Z,100999.00
2023-05-02T02:29:20.198Z,101002.00
2023-05-02T02:31:46.784Z,100997.00
2023-05-02T02:34:13.901Z,101008.00
2023-05-02T02:36:53.543Z,100995.00
2023-05-02T02:39:37.476Z,101013.00
2023-05-02T02:42:32.096Z,101000.00
2023-05-02T02:45:25.222Z,101012.00
2023-05-02T02:48:09.500Z,101022.00
2023-05-02T02:50:46.284Z,101028.00
2023-05-02T02:53:21.631Z,101030.00
2023-05-02T02:55:52.928Z,101036.00
2023-05-02T02:58:43.469Z,101040.00
2023-05-02T03:01:15.968Z,101035.00
2023-05-02T03:03:44.562Z,101047.00
2023-05-02T03:06:11.738Z,101052.00
2023-05-02T03:08:43.108Z,101055.00
2023-05-02T03:11:10.027Z,101064.00
2023-05-02T03:13:36.789Z,101073.00
2023-05-02T03:16:29.895Z,101070.00
2023-05-02T03:18:56.795Z,101071.00
2023-05-02T03:21:23.558Z,101083.00
2023-05-02T03:23:50.032Z,101081.00
2023-05-02T03:26:17.554Z,101091.00
2023-05-02T03:28:47.885Z,101087.00
2023-05-02T03:31:17.458Z,101083.00
2023-05-02T03:33:44.210Z,101094.00
2023-05-02T03:36:11.418Z,101094.00
2023-05-02T03:38:38.016Z,101106.00
2023-05-02T03:41:04.832Z,101110.00
2023-05-02T03:43:31.572Z,101112.00
2023-05-02T03:45:58.955Z,101117.00
2023-05-02T03:48:27.169Z,101114.00
2023-05-02T03:50:53.933Z,101124.00
2023-05-02T03:53:20.677Z,101120.00
2023-05-02T03:55:47.619Z,101113.00
2023-05-02T03:58:14.179Z,101125.00
2023-05-02T04:00:41.058Z,101123.00
2023-05-02T04:03:08.128Z,101130.00
2023-05-02T04:05:36.238Z,101130.00
2023-05-02T04:08:05.722Z,101136.00
2023-05-02T04:10:33.667Z,101141.00
2023-05-02T04:13:02.987Z,101144.00
2023-05-02T04:15:42.515Z,101143.00
2023-05-02T04:18:09.305Z,101146.00
2023-05-02T04:20:35.870Z,101148.00
2023-05-02T04:23:02.465Z,101147.00
2023-05-02T04:25:29.312Z,101148.00
2023-05-02T04:27:56.464Z,101153.00
2023-05-02T04:30:22.984Z,101162.00
2023-05-02T04:32:49.775Z,101169.00
2023-05-02T04:35:17.348Z,101168.00
2023-05-02T04:37:44.205Z,101177.00
2023-05-02T04:40:11.554Z,101169.00
2023-05-02T04:42:38.271Z,101174.00
2023-05-02T04:45:06.602Z,101180.00
2023-05-02T04:47:33.395Z,101186.00
2023-05-02T04:50:00.544Z,101177.00
2023-05-02T04:52:27.354Z,101180.00
2023-05-02T04:54:54.100Z,101175.00
2023-05-02T04:57:23.208Z,101192.00
2023-05-02T04:59:49.963Z,101193.00
2023-05-02T05:02:18.808Z,101197.00
2023-05-02T05:04:45.986Z,101203.00
2023-05-02T05:07:13.587Z,101199.00
2023-05-02T05:09:40.178Z,101203.00
2023-05-02T05:12:06.973Z,101211.00
2023-05-02T05:14:34.981Z,101209.00
2023-05-02T05:17:04.189Z,101219.00
2023-05-02T05:19:38.056Z,101218.00
2023-05-02T05:22:06.105Z,101225.00
2023-05-02T05:24:32.868Z,101233.00
2023-05-02T05:26:59.859Z,101233.00
2023-05-02T05:29:26.386Z,101220.00
2023-05-02T05:31:52.860Z,101236.00
2023-05-02T05:34:22.251Z,101233.00
2023-05-02T05:36:51.204Z,101238.00
2023-05-02T05:39:18.060Z,101247.00
2023-05-02T05:41:45.194Z,101247.00
2023-05-02T05:44:11.882Z,101255.00
2023-05-02T05:46:38.718Z,101260.00
2023-05-02T05:49:09.558Z,101269.00
2023-05-02T05:51:36.432Z,101261.00
2023-05-02T05:54:03.033Z,101260.00
2023-05-02T05:56:29.639Z,101270.00
2023-05-02T05:58:56.427Z,101266.00
2023-05-02T06:01:24.125Z,101267.00
2023-05-02T06:03:51.005Z,101270.00
2023-05-02T06:06:17.833Z,101284.00
2023-05-02T06:08:44.611Z,101282.00
2023-05-02T06:11:12.228Z,101296.00
2023-05-02T06:13:40.280Z,101295.00
2023-05-02T06:16:09.713Z,101283.00
2023-05-02T06:18:36.255Z,101305.00
2023-05-02T06:21:06.501Z,101306.00
2023-05-02T06:23:34.095Z,101312.00
2023-05-02T06:26:02.136Z,101307.00
2023-05-02T06:28:29.506Z,101313.00
2023-05-02T06:30:59.784Z,101320.00
2023-05-02T06:33:26.785Z,101322.00
2023-05-02T06:35:53.587Z,101326.00
2023-05-02T06:38:20.879Z,101333.00
2023-05-02T06:40:47.539Z,101334.00
2023-05-02T06:43:14.903Z,101337.00
2023-05-02T06:45:42.036Z,101337.00
2023-05-02T06:48:08.874Z,101344.00
2023-05-02T06:50:36.316Z,101350.00
2023-05-02T06:53:10.841Z,101367.00
2023-05-02T06:55:38.607Z,101357.00
2023-05-02T06:58:06.548Z,101384.00
2023-05-02T07:00:33.463Z,101384.00
2023-05-02T07:03:01.166Z,101359.00
2023-05-02T07:05:27.689Z,101365.00
2023-05-02T07:07:54.649Z,101365.00
2023-05-02T07:10:22.554Z,101373.00
2023-05-02T07:12:51.487Z,101360.00
2023-05-02T07:15:18.022Z,101373.00
2023-05-02T07:17:48.180Z,101387.00
2023-05-02T07:20:16.360Z,101396.00
2023-05-02T07:22:44.198Z,101386.00
2023-05-02T07:25:11.064Z,101405.00
2023-05-02T07:27:37.903Z,101389.00
2023-05-02T07:30:05.364Z,101384.00
2023-05-02T07:32:31.992Z,101382.00
2023-05-02T07:34:58.859Z,101422.00
2023-05-02T07:37:27.627Z,101424.00
2023-05-02T07:39:54.485Z,101425.00
2023-05-02T07:42:20.956Z,101436.00
2023-05-02T07:44:49.797Z,101439.00
2023-05-02T07:47:16.463Z,101449.00
2023-05-02T07:49:43.967Z,101440.00
2023-05-02T07:52:12.350Z,101446.00
2023-05-02T07:54:39.103Z,101445.00
2023-05-02T07:57:08.361Z,101450.00
2023-05-02T07:59:37.300Z,101458.00
2023-05-02T08:02:03.751Z,101456.00
2023-05-02T08:04:30.741Z,101443.00
2023-05-02T08:06:58.929Z,101463.00
2023-05-02T08:09:29.769Z,101476.00
2023-05-02T08:11:56.339Z,101488.00
2023-05-02T08:14:23.222Z,101483.00
2023-05-02T08:16:52.185Z,101491.00
2023-05-02T08:19:18.715Z,101488.00
2023-05-02T08:21:47.494Z,101494.00
2023-05-02T08:24:15.316Z,101503.00
2023-05-02T08:26:41.925Z,101496.00
2023-05-02T08:29:08.933Z,101503.00
2023-05-02T08:31:36.520Z,101505.00
2023-05-02T08:34:06.882Z,101514.00
2023-05-02T08:36:37.305Z,101512.00
2023-05-02T08:39:11.556Z,101515.00
2023-05-02T08:41:39.432Z,101507.00
2023-05-02T08:44:06.720Z,101508.00
2023-05-02T08:46:36.621Z,101521.00
2023-05-02T08:49:03.803Z,101524.00
2023-05-02T08:51:36.306Z,101527.00
2023-05-02T08:54:04.440Z,101540.00
2023-05-02T08:56:31.266Z,101536.00
2023-05-02T08:58:58.038Z,101545.00
2023-05-02T09:01:30.002Z,101561.00
2023-05-02T09:03:58.581Z,101558.00
2023-05-02T09:06:27.318Z,101556.00
2023-05-02T09:08:53.831Z,101553.00
2023-05-02T09:11:21.443Z,101582.00
2023-05-02T09:13:50.042Z,101567.00
2023-05-02T09:16:23.682Z,101576.00
2023-05-02T09:18:57.371Z,101589.00
2023-05-02T09:21:45.768Z,101587.00
2023-05-02T09:24:18.394Z,101587.00
2023-05-02T09:27:01.014Z,101582.00
2023-05-02T09:29:30.993Z,101582.00
2023-05-02T09:31:57.963Z,101582.00
2023-05-02T09:34:24.521Z,101587.00
2023-05-02T09:36:59.486Z,101594.00
2023-05-02T09:39:30.950Z,101599.00
2023-05-02T09:41:58.940Z,101605.00
2023-05-02T09:44:27.378Z,101608.00
2023-05-02T09:46:56.293Z,101618.00
2023-05-02T09:49:46.363Z,101627.00
2023-05-02T09:52:17.654Z,101613.00
2023-05-02T09:54:46.408Z,101617.00
2023-05-02T09:57:13.242Z,101628.00
2023-05-02T09:59:41.879Z,101626.00
2023-05-02T10:02:11.705Z,101633.00
2023-05-02T10:04:39.006Z,101645.00
2023-05-02T10:07:06.917Z,101639.00
2023-05-02T10:09:37.200Z,101649.00
2023-05-02T10:12:08.950Z,101655.00
2023-05-02T10:14:39.922Z,101655.00
2023-05-02T10:17:13.465Z,101669.00
2023-05-02T10:19:53.354Z,101671.00
2023-05-02T10:22:20.204Z,101681.00
2023-05-02T10:24:49.725Z,101682.00
2023-05-02T10:27:17.887Z,101698.00
2023-05-02T10:29:48.085Z,101699.00
2023-05-02T10:32:20.870Z,101703.00
2023-05-02T10:34:47.762Z,101708.00
2023-05-02T10:37:15.808Z,101718.00
2023-05-02T10:39:43.141Z,101724.00
2023-05-02T10:42:10.648Z,101719.00
2023-05-02T10:44:40.101Z,101723.00
2023-05-02T10:47:24.982Z,101733.00
2023-05-02T10:50:03.069Z,101746.00
2023-05-02T10:52:52.715Z,101745.00
2023-05-02T10:55:26.112Z,101740.00
2023-05-02T10:58:02.024Z,101726.00
2023-05-02T11:00:31.121Z,101739.00
2023-05-02T11:02:59.305Z,101736.00
2023-05-02T11:05:27.916Z,101732.00
2023-05-02T11:08:20.253Z,101732.00
2023-05-02T11:10:48.765Z,101735.00
2023-05-02T11:13:16.065Z,101738.00
2023-05-02T11:15:42.461Z,101743.00
2023-05-02T11:18:13.092Z,101746.00
2023-05-02T11:20:45.855Z,101736.00
2023-05-02T11:23:29.928Z,101752.00
2023-05-02T11:26:00.436Z,101745.00
2023-05-02T11:28:48.306Z,101743.00
2023-05-02T11:31:32.859Z,101746.00
2023-05-02T11:34:03.696Z,101753.00
2023-05-02T11:36:34.098Z,101751.00
2023-05-02T11:39:03.637Z,101751.00
2023-05-02T11:41:43.153Z,101755.00
2023-05-02T11:44:12.805Z,101755.00
2023-05-02T11:46:41.007Z,101768.00
2023-05-02T11:49:09.684Z,101762.00
2023-05-02T11:51:37.463Z,101768.00
2023-05-02T11:54:04.573Z,101767.00
2023-05-02T11:56:31.552Z,101768.00
2023-05-02T11:59:00.142Z,101772.00
2023-05-02T12:01:27.465Z,101780.00
2023-05-02T12:04:05.523Z,101772.00
2023-05-02T12:06:33.800Z,101777.00
2023-05-02T12:09:13.797Z,101789.00
2023-05-02T12:11:42.115Z,101783.00
2023-05-02T12:14:09.934Z,101793.00
2023-05-02T12:16:37.062Z,101808.00
2023-05-02T12:19:05.005Z,101811.00
2023-05-02T12:21:36.145Z,101806.00
2023-05-02T12:24:03.557Z,101803.00
2023-05-02T12:26:32.482Z,101809.00
2023-05-02T12:28:59.830Z,101811.00
2023-05-02T12:31:28.202Z,101810.00
2023-05-02T12:33:59.400Z,101825.00
2023-05-02T12:36:28.568Z,101808.00
2023-05-02T12:38:59.495Z,101822.00
2023-05-02T12:41:34.897Z,101823.00
2023-05-02T12:44:01.492Z,101803.00
2023-05-02T12:46:33.468Z,101812.00
2023-05-02T12:49:12.638Z,101809.00
2023-05-02T12:51:41.210Z,101820.00
2023-05-02T12:54:08.141Z,101818.00
2023-05-02T12:56:43.795Z,101810.00
2023-05-02T12:59:25.753Z,101827.00
2023-05-02T13:01:53.559Z,101803.00
2023-05-02T13:04:20.807Z,101838.00
2023-05-02T13:06:48.437Z,101809.00
2023-05-02T13:09:15.396Z,101844.00
2023-05-02T13:11:45.185Z,101801.00
2023-05-02T13:14:13.484Z,101828.00
2023-05-02T13:16:40.462Z,101839.00
2023-05-02T13:19:08.427Z,101833.00
2023-05-02T13:21:35.002Z,101847.00
2023-05-02T13:24:04.169Z,101855.00
2023-05-02T13:26:31.010Z,101860.00
2023-05-02T13:28:57.550Z,101865.00
2023-05-02T13:31:24.190Z,101871.00
2023-05-02T13:33:50.930Z,101856.00
2023-05-02T13:36:20.183Z,101874.00
2023-05-02T13:38:49.864Z,101869.00
2023-05-02T13:41:17.245Z,101880.00
2023-05-02T13:43:43.817Z,101884.00
2023-05-02T13:46:11.467Z,101887.00
2023-05-02T13:48:39.089Z,101885.00
2023-05-02T13:51:07.663Z,101886.00
2023-05-02T13:53:36.110Z,101890.00
2023-05-02T13:56:04.988Z,101898.00
2023-05-02T13:58:31.462Z,101897.00
2023-05-02T14:00:58.238Z,101904.00
2023-05-02T14:03:25.131Z,101902.00
2023-05-02T14:05:51.879Z,101913.00
2023-05-02T14:08:19.406Z,101911.00
2023-05-02T14:10:46.107Z,101917.00
2023-05-02T14:13:12.585Z,101914.00
2023-05-02T14:15:41.078Z,101915.00
2023-05-02T14:18:07.834Z,101922.00
2023-05-02T14:20:37.084Z,101934.00
2023-05-02T14:23:05.227Z,101938.00
2023-05-02T14:25:32.712Z,101947.00
2023-05-02T14:27:59.931Z,101949.00
2023-05-02T14:30:26.850Z,101954.00
2023-05-02T14:32:53.677Z,101944.00
2023-05-02T14:35:22.535Z,101956.00
2023-05-02T14:37:51.342Z,101951.00
2023-05-02T14:40:19.259Z,101958.00
2023-05-02T14:42:48.358Z,101961.00
2023-05-02T14:45:15.427Z,101963.00
2023-05-02T14:47:43.575Z,101956.00
2023-05-02T14:50:10.845Z,101955.00
2023-05-02T14:52:37.509Z,101961.00
2023-05-02T14:55:06.254Z,101955.00
2023-05-02T14:57:33.313Z,101954.00
2023-05-02T15:00:00.591Z,101950.00
2023-05-02T15:02:28.111Z,101943.00
2023-05-02T15:04:54.729Z,101944.00
2023-05-02T15:07:21.772Z,101944.00
2023-05-02T15:09:48.863Z,101957.00
2023-05-02T15:12:15.555Z,101949.00
2023-05-02T15:14:42.442Z,101956.00
2023-05-02T15:17:09.673Z,101950.00
2023-05-02T15:19:36.299Z,101949.00
2023-05-02T15:22:04.818Z,101955.00
2023-05-02T15:24:32.698Z,101948.00
2023-05-02T15:27:00.219Z,101951.00
2023-05-02T15:29:27.055Z,101950.00
2023-05-02T15:31:58.203Z,101952.00
2023-05-02T15:34:24.705Z,101964.00
2023-05-02T15:36:52.401Z,101961.00
2023-05-02T15:39:19.532Z,101944.00
2023-05-02T15:41:49.283Z,101952.00
2023-05-02T15:44:17.046Z,101934.00
2023-05-02T15:46:47.242Z,101930.00
2023-05-02T15:49:14.112Z,101950.00
2023-05-02T15:51:43.509Z,101942.00
2023-05-02T15:54:12.594Z,101935.00
2023-05-02T15:56:39.714Z,101938.00
2023-05-02T15:59:20.904Z,101967.00
2023-05-02T16:01:51.593Z,101965.00
2023-05-02T16:04:18.596Z,101951.00
2023-05-02T16:06:45.389Z,101949.00
2023-05-02T16:09:12.896Z,101951.00
2023-05-02T16:11:40.092Z,101950.00
2023-05-02T16:14:12.587Z,101947.00
2023-05-02T16:16:39.229Z,101947.00
2023-05-02T16:19:12.629Z,101948.00
2023-05-02T16:21:42.797Z,101948.00
2023-05-02T16:24:09.801Z,101962.00
2023-05-02T16:26:36.807Z,101953.00
2023-05-02T16:29:03.319Z,101949.00
2023-05-02T16:31:31.352Z,101958.00
2023-05-02T16:34:02.005Z,101973.00
2023-05-02T16:36:34.533Z,101979.00
2023-05-02T16:39:01.063Z,101957.00
2023-05-02T16:41:27.806Z,101967.00
2023-05-02T16:43:55.626Z,101969.00
2023-05-02T16:46:22.154Z,101976.00
2023-05-02T16:48:51.915Z,101967.00
2023-05-02T16:51:21.250Z,101962.00
2023-05-02T16:53:50.088Z,101972.00
2023-05-02T16:56:19.151Z,101984.00
2023-05-02T16:58:46.246Z,101977.00
2023-05-02T17:01:16.646Z,101984.00
2023-05-02T17:03:43.463Z,101974.00
2023-05-02T17:06:11.464Z,101977.00
2023-05-02T17:08:39.414Z,101975.00
2023-05-02T17:11:07.977Z,101984.00
2023-05-02T17:13:34.910Z,101974.00
2023-05-02T17:16:01.460Z,101978.00
2023-05-02T17:18:28.398Z,101984.00
2023-05-02T17:20:56.165Z,101982.00
2023-05-02T17:23:22.849Z,101987.00
2023-05-02T17:25:49.403Z,101987.00
2023-05-02T17:28:17.187Z,101991.00
2023-05-02T17:30:46.681Z,101994.00
2023-05-02T17:33:14.364Z,101998.00
2023-05-02T17:35:41.436Z,101999.00
2023-05-02T17:38:09.840Z,102000.00
2023-05-02T17:40:38.350Z,102012.00
2023-05-02T17:43:05.923Z,102012.00
2023-05-02T17:45:36.662Z,102014.00
2023-05-02T17:48:04.328Z,102015.00
2023-05-02T17:50:36.879Z,102027.00
2023-05-02T17:53:05.485Z,102030.00
2023-05-02T17:55:43.292Z,102026.00
2023-05-02T17:58:09.815Z,102019.00
2023-05-02T18:00:37.852Z,102020.00
2023-05-02T18:03:04.653Z,102034.00
2023-05-02T18:05:31.216Z,102039.00
2023-05-02T18:08:00.168Z,102037.00
2023-05-02T18:10:29.253Z,102031.00
2023-05-02T18:12:59.756Z,102034.00
2023-05-02T18:15:27.589Z,102033.00
2023-05-02T18:17:56.788Z,102038.00
2023-05-02T18:20:25.243Z,102040.00
2023-05-02T18:22:52.297Z,102049.00
2023-05-02T18:25:19.353Z,102049.00
2023-05-02T18:27:48.526Z,102044.00
2023-05-02T18:30:15.536Z,102043.00
2023-05-02T18:32:43.765Z,102048.00
2023-05-02T18:35:13.303Z,102046.00
2023-05-02T18:37:39.867Z,102060.00
2023-05-02T18:40:10.339Z,102062.00
2023-05-02T18:42:37.624Z,102054.00
2023-05-02T18:45:05.611Z,102057.00
2023-05-02T18:47:33.670Z,102056.00
2023-05-02T18:50:01.216Z,102066.00
2023-05-02T18:52:30.975Z,102059.00
2023-05-02T18:54:59.779Z,102068.00
2023-05-02T18:57:32.487Z,102075.00
2023-05-02T18:59:59.775Z,102074.00
2023-05-02T19:02:26.688Z,102076.00
2023-05-02T19:04:54.517Z,102075.00
2023-05-02T19:07:22.787Z,102077.00
2023-05-02T19:09:51.044Z,102085.00
2023-05-02T19:12:17.817Z,102089.00
2023-05-02T19:14:44.798Z,102095.00
2023-05-02T19:17:14.144Z,102092.00
2023-05-02T19:19:41.844Z,102105.00
2023-05-02T19:22:13.746Z,102109.00
2023-05-02T19:24:45.411Z,102111.00
2023-05-02T19:27:13.938Z,102105.00
2023-05-02T19:29:41.447Z,102112.00
2023-05-02T19:32:08.043Z,102118.00
2023-05-02T19:34:36.792Z,102126.00
2023-05-02T19:37:05.031Z,102114.00
2023-05-02T19:39:31.994Z,102119.00
2023-05-02T19:41:59.134Z,102132.00
2023-05-02T19:44:25.781Z,102132.00
2023-05-02T19:46:55.525Z,102133.00
2023-05-02T19:49:23.458Z,102141.00
2023-05-02T19:51:50.264Z,102137.00
2023-05-02T19:54:18.529Z,102143.00
2023-05-02T19:56:49.056Z,102150.00
2023-05-02T19:59:15.841Z,102140.00
2023-05-02T20:01:46.164Z,102152.00
2023-05-02T20:04:13.106Z,102149.00
2023-05-02T20:06:40.834Z,102147.00
2023-05-02T20:09:07.557Z,102154.00
2023-05-02T20:11:36.291Z,102154.00
2023-05-02T20:14:03.508Z,102152.00
2023-05-02T20:16:34.209Z,102158.00
2023-05-02T20:19:03.320Z,102164.00
2023-05-02T20:21:29.905Z,102171.00
2023-05-02T20:23:56.657Z,102172.00
2023-05-02T20:26:23.673Z,102171.00
2023-05-02T20:28:53.652Z,102170.00
2023-05-02T20:31:20.444Z,102178.00
2023-05-02T20:33:47.354Z,102175.00
2023-05-02T20:36:15.127Z,102167.00
2023-05-02T20:38:42.983Z,102174.00
2023-05-02T20:41:12.626Z,102175.00
2023-05-02T20:43:45.101Z,102181.00
2023-05-02T20:46:13.960Z,102177.00
2023-05-02T20:48:40.817Z,102187.00
2023-05-02T20:51:08.859Z,102183.00
2023-05-02T20:53:36.622Z,102189.00
2023-05-02T20:56:03.231Z,102195.00
2023-05-02T20:58:29.769Z,102193.00
2023-05-02T21:00:57.832Z,102197.00
2023-05-02T21:03:24.634Z,102191.00
2023-05-02T21:05:59.998Z,102208.00
2023-05-02T21:08:26.891Z,102202.00
2023-05-02T21:10:54.017Z,102206.00
2023-05-02T21:13:26.792Z,102201.00
2023-05-02T21:15:54.172Z,102207.00
2023-05-02T21:18:32.650Z,102207.00
2023-05-02T21:21:10.951Z,102206.00
2023-05-02T21:23:41.894Z,102211.00
2023-05-02T21:26:28.112Z,102212.00
2023-05-02T21:28:55.485Z,102209.00
2023-05-02T21:31:22.375Z,102213.00
2023-05-02T21:34:33.680Z,102218.00
2023-05-02T21:37:00.765Z,102216.00
2023-05-02T21:39:27.455Z,102216.00
2023-05-02T21:41:54.255Z,102217.00
2023-05-02T21:44:21.332Z,102212.00
2023-05-02T21:46:48.535Z,102214.00
2023-05-02T21:49:15.692Z,102217.00
2023-05-02T21:51:43.847Z,102213.00
2023-05-02T21:54:11.102Z,102213.00
2023-05-02T21:56:38.888Z,102220.00
2023-05-02T21:59:09.721Z,102208.00
2023-05-02T22:01:40.273Z,102208.00
2023-05-02T22:04:07.544Z,102206.00
2023-05-02T22:06:43.840Z,102208.00
2023-05-02T22:09:11.098Z,102222.00
2023-05-02T22:11:38.265Z,102219.00
2023-05-02T22:14:05.976Z,102220.00
2023-05-02T22:16:32.805Z,102223.00
2023-05-02T22:19:09.402Z,102220.00
2023-05-02T22:21:36.536Z,102229.00
2023-05-02T22:24:03.908Z,102228.00
2023-05-02T22:26:30.973Z,102228.00
2023-05-02T22:29:00.062Z,102239.00
2023-05-02T22:31:27.520Z,102237.00
2023-05-02T22:33:55.326Z,102242.00
2023-05-02T22:36:52.052Z,102245.00
2023-05-02T22:42:31.899Z,102236.00
2023-05-02T22:45:18.710Z,102248.00
2023-05-02T22:48:45.864Z,102251.00
2023-05-02T22:51:18.731Z,102249.00
2023-05-02T22:54:28.055Z,102257.00
2023-05-02T22:56:55.176Z,102261.00
2023-05-02T22:59:22.376Z,102253.00
2023-05-02T23:01:52.274Z,102255.00
2023-05-02T23:04:22.738Z,102259.00
2023-05-02T23:06:49.904Z,102259.00
2023-05-02T23:09:16.976Z,102254.00
2023-05-02T23:11:43.900Z,102262.00
2023-05-02T23:14:12.309Z,102263.00
2023-05-02T23:16:39.563Z,102261.00
2023-05-02T23:19:08.534Z,102265.00
2023-05-02T23:21:47.312Z,102273.00
2023-05-02T23:24:14.493Z,102272.00
2023-05-02T23:26:45.894Z,102272.00
2023-05-02T23:29:12.980Z,102264.00
2023-05-02T23:31:40.225Z,102269.00
2023-05-02T23:34:07.409Z,102271.00
2023-05-02T23:36:35.220Z,102280.00
2023-05-02T23:39:02.833Z,102281.00
2023-05-02T23:41:32.021Z,102270.00
2023-05-02T23:43:59.168Z,102278.00
2023-05-02T23:46:27.843Z,102274.00
2023-05-02T23:48:54.603Z,102272.00
2023-05-02T23:51:21.263Z,102269.00
2023-05-02T23:53:51.314Z,102275.00
2023-05-02T23:56:21.475Z,102271.00
2023-05-02T23:58:51.262Z,102273.00
